Hakuho Maru — JDSS — position and weather

sailwx.info

Track history (hours):
 
Tides and Currents Weather Stations Pressure Air Temp Water Temp Dewpoint Dewpoint Depression Visibility Wind Speed Wind Dir Waves Ship Positions

Oceanographic research ship Hakuho Maru (Japan)

Detailed information on ship capabilities available from University of Delaware's Ocean Information Center.

Last reported at 2017-Mar-23 16:32 UTC. Time now 2017-Mar-23 20:05 UTC.
Position N 35°39' E 139°47'.

Length 100 m; beam 16.2 m; draft 6 m.

Type: Other ship. MMSI: 431010000.

Date/timePositionNaut miles runAvg speedWind from/ knotsBaromVisibWave heightAir tempDewpointWater temp
2017-Mar-23 16:32N 35°39' E 139°47'0 0.0
2017-Mar-23 14:26N 35°39' E 139°47'0 0.1
2017-Mar-23 13:32N 35°39' E 139°47'0 0.0
2017-Mar-23 12:20N 35°39' E 139°47'0 0.1
2017-Mar-23 11:26N 35°39' E 139°47'0 0.0
2017-Mar-23 09:14N 35°39' E 139°47'0 0.0
2017-Mar-23 07:32N 35°39' E 139°47'0 0.0
2017-Mar-23 06:23N 35°39' E 139°47'0 0.0
2017-Mar-23 04:23N 35°39' E 139°47'0 0.0
2017-Mar-23 02:32N 35°39' E 139°47'0 0.0
2017-Mar-23 01:26N 35°39' E 139°47'2 0.8
2017-Mar-22 23:33N 35°38' E 139°46'1010.0
2017-Mar-22 22:33N 35°29' E 139°52'1211.8
2017-Mar-22 21:33N 35°19' E 139°44'1110.9
2017-Mar-22 20:33N 35°09' E 139°46'8 2.0
2017-Mar-22 16:29N 35°01' E 139°48'0 0.2
2017-Mar-22 15:33N 35°01' E 139°48'1 0.5
2017-Mar-22 14:33N 35°00' E 139°48'1 0.8
2017-Mar-22 13:33N 35°01' E 139°48'0 0.4
2017-Mar-22 12:33N 35°01' E 139°48'0 0.4
2017-Mar-22 11:33N 35°00' E 139°48'0 0.2
2017-Mar-22 10:33N 35°01' E 139°48'5 4.9
2017-Mar-22 09:33N 34°60' E 139°43'28 1.6
2017-Mar-21 16:24N 35°07' E 139°09'1 0.2
2017-Mar-21 13:25N 35°07' E 139°08'0 0.4
2017-Mar-21 12:24N 35°07' E 139°09'1 0.9
2017-Mar-21 11:26N 35°07' E 139°08'1 0.4
2017-Mar-21 09:30N 35°06' E 139°08'0 0.3
2017-Mar-21 08:26N 35°06' E 139°08'1 0.7
2017-Mar-21 07:29N 35°06' E 139°08'0 0.5
2017-Mar-21 06:32N 35°06' E 139°09'1 0.6
2017-Mar-21 05:33N 35°06' E 139°08'0 0.3
2017-Mar-21 04:31N 35°07' E 139°08'1 0.7
2017-Mar-21 03:33N 35°07' E 139°08'10 9.6
2017-Mar-21 02:29N 34°57' E 139°13'  
2017-Mar-17 08:25N 35°00' E 139°19'13 3.3
2017-Mar-17 04:31N 35°05' E 139°33'1212.8
2017-Mar-17 03:33N 35°12' E 139°46'1212.4
2017-Mar-17 02:33N 35°24' E 139°43'1312.9
2017-Mar-17 01:33N 35°35' E 139°50'3 3.0
2017-Mar-17 00:30N 35°38' E 139°48'0 0.0
2017-Mar-16 23:30N 35°38' E 139°48'0 0.0
2017-Mar-16 22:24N 35°38' E 139°48'0 0.0
2017-Mar-16 21:24N 35°38' E 139°48'0 0.0
2017-Mar-16 20:33N 35°38' E 139°48'0 0.0
2017-Mar-16 19:33N 35°38' E 139°48'0 0.0
2017-Mar-16 18:30N 35°38' E 139°48'0 0.0
2017-Mar-16 17:33N 35°38' E 139°48'0 0.0
2017-Mar-16 16:30N 35°38' E 139°48'0 0.0
2017-Mar-16 15:33N 35°38' E 139°48'0 0.0
2017-Mar-16 14:30N 35°38' E 139°48'0 0.0
2017-Mar-16 13:30N 35°38' E 139°48'0 0.0
2017-Mar-16 12:24N 35°38' E 139°48'0 0.0
2017-Mar-16 11:33N 35°38' E 139°48'0 0.0
2017-Mar-16 07:33N 35°38' E 139°48'0 0.0
2017-Mar-16 06:30N 35°38' E 139°48'0 0.0
2017-Mar-16 05:33N 35°38' E 139°48'0 0.0
2017-Mar-16 04:18N 35°38' E 139°48'0 0.0
2017-Mar-16 03:21N 35°38' E 139°48'0 0.0
2017-Mar-16 01:33N 35°38' E 139°48'0 0.0
2017-Mar-16 00:30N 35°38' E 139°48'0 0.0
2017-Mar-15 23:24N 35°38' E 139°48'0 0.0
2017-Mar-15 22:12N 35°38' E 139°48'0 0.0
2017-Mar-15 21:24N 35°38' E 139°48'0 0.0
2017-Mar-15 20:30N 35°38' E 139°48'0 0.0
2017-Mar-15 19:24N 35°38' E 139°48'0 0.0
2017-Mar-15 18:24N 35°38' E 139°48'0 0.0
2017-Mar-15 17:30N 35°38' E 139°48'0 0.0
2017-Mar-15 11:30N 35°38' E 139°48'0 0.0
2017-Mar-15 10:30N 35°38' E 139°48'0 0.0
2017-Mar-15 09:03N 35°38' E 139°48'0 0.0
2017-Mar-15 08:30N 35°38' E 139°48'0 0.0
2017-Mar-15 07:27N 35°38' E 139°48'0 0.0
2017-Mar-15 06:30N 35°38' E 139°48'0 0.0
2017-Mar-15 05:33N 35°38' E 139°48'0 0.0
2017-Mar-15 04:30N 35°38' E 139°48'0 0.0
2017-Mar-15 03:27N 35°38' E 139°48'0 0.0
2017-Mar-15 02:33N 35°38' E 139°48'0 0.0
2017-Mar-15 01:33N 35°38' E 139°48'0 0.0
2017-Mar-15 00:27N 35°38' E 139°48'0 0.0
2017-Mar-14 23:33N 35°38' E 139°48'0 0.0
2017-Mar-14 22:27N 35°38' E 139°48'0 0.0
2017-Mar-14 21:30N 35°38' E 139°48'0 0.0
2017-Mar-14 20:33N 35°38' E 139°48'0 0.0
2017-Mar-14 19:24N 35°38' E 139°48'0 0.0
2017-Mar-14 18:27N 35°38' E 139°48'0 0.0
2017-Mar-14 17:27N 35°38' E 139°48'0 0.0
2017-Mar-14 16:33N 35°38' E 139°48'0 0.0
2017-Mar-14 15:33N 35°38' E 139°48'0 0.0
2017-Mar-14 14:21N 35°38' E 139°48'0 0.0
2017-Mar-14 13:33N 35°38' E 139°48'0 0.0
2017-Mar-14 12:33N 35°38' E 139°48'0 0.0
2017-Mar-14 11:27N 35°38' E 139°48'0 0.0
2017-Mar-14 10:30N 35°38' E 139°48'0 0.0
2017-Mar-14 09:24N 35°38' E 139°48'0 0.0
2017-Mar-14 08:18N 35°38' E 139°48'0 0.0
2017-Mar-14 07:30N 35°38' E 139°48'0 0.0
2017-Mar-14 06:12N 35°38' E 139°48'0 0.0
2017-Mar-14 05:27N 35°38' E 139°48'0 0.0
2017-Mar-14 04:30N 35°38' E 139°48'0 0.0
2017-Mar-14 03:27N 35°38' E 139°48'0 0.0
2017-Mar-14 02:21N 35°38' E 139°48'0 0.0
2017-Mar-14 01:33N 35°38' E 139°48'0 0.0
2017-Mar-14 00:27N 35°38' E 139°48'0 0.0
2017-Mar-13 23:24N 35°38' E 139°48'0 0.0
2017-Mar-13 22:27N 35°38' E 139°48'0 0.0
2017-Mar-13 21:24N 35°38' E 139°48'0 0.0
2017-Mar-13 20:30N 35°38' E 139°48'0 0.0
2017-Mar-13 19:18N 35°38' E 139°48'0 0.0
2017-Mar-13 18:24N 35°38' E 139°48'0 0.0
2017-Mar-13 17:33N 35°38' E 139°48'0 0.0
2017-Mar-13 16:33N 35°38' E 139°48'  
Track history (hours):
 
Tides and Currents Weather Stations Pressure Air Temp Water Temp Dewpoint Dewpoint Depression Visibility Wind Speed Wind Dir Waves Ship Positions

Oceanographic research ship Hakuho Maru (Japan)

Detailed information on ship capabilities available from University of Delaware's Ocean Information Center.

Last reported at 2017-Mar-23 16:32 UTC. Time now 2017-Mar-23 20:05 UTC.
Position N 35°39' E 139°47'.

Length 100 m; beam 16.2 m; draft 6 m.

Type: Other ship. MMSI: 431010000.

Date/timePositionNaut miles runAvg speedWind from/ knotsBaromVisibWave heightAir tempDewpointWater temp
2017-Mar-23 16:32N 35°39' E 139°47'0 0.0
2017-Mar-23 14:26N 35°39' E 139°47'0 0.1
2017-Mar-23 13:32N 35°39' E 139°47'0 0.0
2017-Mar-23 12:20N 35°39' E 139°47'0 0.1
2017-Mar-23 11:26N 35°39' E 139°47'0 0.0
2017-Mar-23 09:14N 35°39' E 139°47'0 0.0
2017-Mar-23 07:32N 35°39' E 139°47'0 0.0
2017-Mar-23 06:23N 35°39' E 139°47'0 0.0
2017-Mar-23 04:23N 35°39' E 139°47'0 0.0
2017-Mar-23 02:32N 35°39' E 139°47'0 0.0
2017-Mar-23 01:26N 35°39' E 139°47'2 0.8
2017-Mar-22 23:33N 35°38' E 139°46'1010.0
2017-Mar-22 22:33N 35°29' E 139°52'1211.8
2017-Mar-22 21:33N 35°19' E 139°44'1110.9
2017-Mar-22 20:33N 35°09' E 139°46'8 2.0
2017-Mar-22 16:29N 35°01' E 139°48'0 0.2
2017-Mar-22 15:33N 35°01' E 139°48'1 0.5
2017-Mar-22 14:33N 35°00' E 139°48'1 0.8
2017-Mar-22 13:33N 35°01' E 139°48'0 0.4
2017-Mar-22 12:33N 35°01' E 139°48'0 0.4
2017-Mar-22 11:33N 35°00' E 139°48'0 0.2
2017-Mar-22 10:33N 35°01' E 139°48'5 4.9
2017-Mar-22 09:33N 34°60' E 139°43'28 1.6
2017-Mar-21 16:24N 35°07' E 139°09'1 0.2
2017-Mar-21 13:25N 35°07' E 139°08'0 0.4
2017-Mar-21 12:24N 35°07' E 139°09'1 0.9
2017-Mar-21 11:26N 35°07' E 139°08'1 0.4
2017-Mar-21 09:30N 35°06' E 139°08'0 0.3
2017-Mar-21 08:26N 35°06' E 139°08'1 0.7
2017-Mar-21 07:29N 35°06' E 139°08'0 0.5
2017-Mar-21 06:32N 35°06' E 139°09'1 0.6
2017-Mar-21 05:33N 35°06' E 139°08'0 0.3
2017-Mar-21 04:31N 35°07' E 139°08'1 0.7
2017-Mar-21 03:33N 35°07' E 139°08'10 9.6
2017-Mar-21 02:29N 34°57' E 139°13'  
2017-Mar-17 08:25N 35°00' E 139°19'13 3.3
2017-Mar-17 04:31N 35°05' E 139°33'1212.8
2017-Mar-17 03:33N 35°12' E 139°46'1212.4
2017-Mar-17 02:33N 35°24' E 139°43'1312.9
2017-Mar-17 01:33N 35°35' E 139°50'3 3.0
2017-Mar-17 00:30N 35°38' E 139°48'0 0.0
2017-Mar-16 23:30N 35°38' E 139°48'0 0.0
2017-Mar-16 22:24N 35°38' E 139°48'0 0.0
2017-Mar-16 21:24N 35°38' E 139°48'0 0.0
2017-Mar-16 20:33N 35°38' E 139°48'0 0.0
2017-Mar-16 19:33N 35°38' E 139°48'0 0.0
2017-Mar-16 18:30N 35°38' E 139°48'0 0.0
2017-Mar-16 17:33N 35°38' E 139°48'0 0.0
2017-Mar-16 16:30N 35°38' E 139°48'0 0.0
2017-Mar-16 15:33N 35°38' E 139°48'0 0.0
2017-Mar-16 14:30N 35°38' E 139°48'0 0.0
2017-Mar-16 13:30N 35°38' E 139°48'0 0.0
2017-Mar-16 12:24N 35°38' E 139°48'0 0.0
2017-Mar-16 11:33N 35°38' E 139°48'0 0.0
2017-Mar-16 07:33N 35°38' E 139°48'0 0.0
2017-Mar-16 06:30N 35°38' E 139°48'0 0.0
2017-Mar-16 05:33N 35°38' E 139°48'0 0.0
2017-Mar-16 04:18N 35°38' E 139°48'0 0.0
2017-Mar-16 03:21N 35°38' E 139°48'0 0.0
2017-Mar-16 01:33N 35°38' E 139°48'0 0.0
2017-Mar-16 00:30N 35°38' E 139°48'0 0.0
2017-Mar-15 23:24N 35°38' E 139°48'0 0.0
2017-Mar-15 22:12N 35°38' E 139°48'0 0.0
2017-Mar-15 21:24N 35°38' E 139°48'0 0.0
2017-Mar-15 20:30N 35°38' E 139°48'0 0.0
2017-Mar-15 19:24N 35°38' E 139°48'0 0.0
2017-Mar-15 18:24N 35°38' E 139°48'0 0.0
2017-Mar-15 17:30N 35°38' E 139°48'0 0.0
2017-Mar-15 11:30N 35°38' E 139°48'0 0.0
2017-Mar-15 10:30N 35°38' E 139°48'0 0.0
2017-Mar-15 09:03N 35°38' E 139°48'0 0.0
2017-Mar-15 08:30N 35°38' E 139°48'0 0.0
2017-Mar-15 07:27N 35°38' E 139°48'0 0.0
2017-Mar-15 06:30N 35°38' E 139°48'0 0.0
2017-Mar-15 05:33N 35°38' E 139°48'0 0.0
2017-Mar-15 04:30N 35°38' E 139°48'0 0.0
2017-Mar-15 03:27N 35°38' E 139°48'0 0.0
2017-Mar-15 02:33N 35°38' E 139°48'0 0.0
2017-Mar-15 01:33N 35°38' E 139°48'0 0.0
2017-Mar-15 00:27N 35°38' E 139°48'0 0.0
2017-Mar-14 23:33N 35°38' E 139°48'0 0.0
2017-Mar-14 22:27N 35°38' E 139°48'0 0.0
2017-Mar-14 21:30N 35°38' E 139°48'0 0.0
2017-Mar-14 20:33N 35°38' E 139°48'0 0.0
2017-Mar-14 19:24N 35°38' E 139°48'0 0.0
2017-Mar-14 18:27N 35°38' E 139°48'0 0.0
2017-Mar-14 17:27N 35°38' E 139°48'0 0.0
2017-Mar-14 16:33N 35°38' E 139°48'0 0.0
2017-Mar-14 15:33N 35°38' E 139°48'0 0.0
2017-Mar-14 14:21N 35°38' E 139°48'0 0.0
2017-Mar-14 13:33N 35°38' E 139°48'0 0.0
2017-Mar-14 12:33N 35°38' E 139°48'0 0.0
2017-Mar-14 11:27N 35°38' E 139°48'0 0.0
2017-Mar-14 10:30N 35°38' E 139°48'0 0.0
2017-Mar-14 09:24N 35°38' E 139°48'0 0.0
2017-Mar-14 08:18N 35°38' E 139°48'0 0.0
2017-Mar-14 07:30N 35°38' E 139°48'0 0.0
2017-Mar-14 06:12N 35°38' E 139°48'0 0.0
2017-Mar-14 05:27N 35°38' E 139°48'0 0.0
2017-Mar-14 04:30N 35°38' E 139°48'0 0.0
2017-Mar-14 03:27N 35°38' E 139°48'0 0.0
2017-Mar-14 02:21N 35°38' E 139°48'0 0.0
2017-Mar-14 01:33N 35°38' E 139°48'0 0.0
2017-Mar-14 00:27N 35°38' E 139°48'0 0.0
2017-Mar-13 23:24N 35°38' E 139°48'0 0.0
2017-Mar-13 22:27N 35°38' E 139°48'0 0.0
2017-Mar-13 21:24N 35°38' E 139°48'0 0.0
2017-Mar-13 20:30N 35°38' E 139°48'0 0.0
2017-Mar-13 19:18N 35°38' E 139°48'0 0.0
2017-Mar-13 18:24N 35°38' E 139°48'0 0.0
2017-Mar-13 17:33N 35°38' E 139°48'0 0.0
2017-Mar-13 16:33N 35°38' E 139°48'  

Dump ship's entire track history